Cielo Di Vaiano — D5AQ2 — position and weather

sailwx.info

Track history (hours):
 
Tides and Currents Weather Stations Pressure Air Temp Water Temp Dewpoint Dewpoint Depression Visibility Wind Speed Wind Dir Waves Ship Positions

Cielo Di Vaiano

Last reported at 2015-Mar-19 07:31 UTC. Time now 2015-Apr-01 03:07 UTC.
Position N 35°58' W 005°34'.
Warning: this ship's position is 12 days out of date.

Length 183 m; draft 8.3 m.

Type: Cargo ship. MMSI: 636015421.

Date/timePositionNaut miles runAvg speedWind from/ knotsBaromVisibWave heightAir tempDewpointWater temp
2015-Mar-19 07:31N 35°58' W 005°34'9 9.1
2015-Mar-19 06:33N 36°01' W 005°24'7 6.5
2015-Mar-19 05:33N 36°08' W 005°22'0 0.2
2015-Mar-19 04:33N 36°08' W 005°22'0 0.0
2015-Mar-19 03:33N 36°08' W 005°22'0 0.0
2015-Mar-19 02:33N 36°08' W 005°22'0 0.0
2015-Mar-19 01:33N 36°08' W 005°22'0 0.0
2015-Mar-19 00:30N 36°08' W 005°22'0 0.0
2015-Mar-18 23:33N 36°08' W 005°22'0 0.0
2015-Mar-18 22:33N 36°08' W 005°22'0 0.2
2015-Mar-18 21:33N 36°08' W 005°22'5 4.8
2015-Mar-18 20:33N 36°03' W 005°19'22312.8
2015-Mar-18 03:06N 36°42' W 000°46'812.3
2015-Mar-18 02:28N 36°44' W 000°37'3812.1
2015-Mar-17 23:19N 36°52' E 000°09'1112.6
2015-Mar-17 22:29N 36°54' E 000°22'1212.6
2015-Mar-17 21:33N 36°56' E 000°37'1312.7
2015-Mar-17 20:33N 36°59' E 000°52'56212.5
2015-Mar-15 23:30N 36°57' E 012°36'1312.8
2015-Mar-15 22:31N 36°52' E 012°51'1412.9
2015-Mar-15 21:25N 36°48' E 013°07'1213.2
2015-Mar-15 20:32N 36°44' E 013°21'1513.2
2015-Mar-15 19:26N 36°40' E 013°39'1112.9
2015-Mar-15 18:33N 36°36' E 013°52'1313.0
2015-Mar-15 17:33N 36°32' E 014°07'1313.0
2015-Mar-15 16:33N 36°28' E 014°23'1413.0
2015-Mar-15 15:31N 36°26' E 014°39'39712.7
2015-Mar-14 08:13N 38°12' E 022°41'1212.8
2015-Mar-14 07:19N 38°10' E 022°56'  
2015-Mar-10 05:24N 38°11' E 022°59'1 0.3
2015-Mar-10 02:10N 38°10' E 022°59'6 8.3
2015-Mar-10 01:24N 38°10' E 022°51'  
Track history (hours):
 
Tides and Currents Weather Stations Pressure Air Temp Water Temp Dewpoint Dewpoint Depression Visibility Wind Speed Wind Dir Waves Ship Positions

Cielo Di Vaiano

Last reported at 2015-Mar-19 07:31 UTC. Time now 2015-Apr-01 03:07 UTC.
Position N 35°58' W 005°34'.
Warning: this ship's position is 12 days out of date.

Length 183 m; draft 8.3 m.

Type: Cargo ship. MMSI: 636015421.

Date/timePositionNaut miles runAvg speedWind from/ knotsBaromVisibWave heightAir tempDewpointWater temp
2015-Mar-19 07:31N 35°58' W 005°34'9 9.1
2015-Mar-19 06:33N 36°01' W 005°24'7 6.5
2015-Mar-19 05:33N 36°08' W 005°22'0 0.2
2015-Mar-19 04:33N 36°08' W 005°22'0 0.0
2015-Mar-19 03:33N 36°08' W 005°22'0 0.0
2015-Mar-19 02:33N 36°08' W 005°22'0 0.0
2015-Mar-19 01:33N 36°08' W 005°22'0 0.0
2015-Mar-19 00:30N 36°08' W 005°22'0 0.0
2015-Mar-18 23:33N 36°08' W 005°22'0 0.0
2015-Mar-18 22:33N 36°08' W 005°22'0 0.2
2015-Mar-18 21:33N 36°08' W 005°22'5 4.8
2015-Mar-18 20:33N 36°03' W 005°19'22312.8
2015-Mar-18 03:06N 36°42' W 000°46'812.3
2015-Mar-18 02:28N 36°44' W 000°37'3812.1
2015-Mar-17 23:19N 36°52' E 000°09'1112.6
2015-Mar-17 22:29N 36°54' E 000°22'1212.6
2015-Mar-17 21:33N 36°56' E 000°37'1312.7
2015-Mar-17 20:33N 36°59' E 000°52'56212.5
2015-Mar-15 23:30N 36°57' E 012°36'1312.8
2015-Mar-15 22:31N 36°52' E 012°51'1412.9
2015-Mar-15 21:25N 36°48' E 013°07'1213.2
2015-Mar-15 20:32N 36°44' E 013°21'1513.2
2015-Mar-15 19:26N 36°40' E 013°39'1112.9
2015-Mar-15 18:33N 36°36' E 013°52'1313.0
2015-Mar-15 17:33N 36°32' E 014°07'1313.0
2015-Mar-15 16:33N 36°28' E 014°23'1413.0
2015-Mar-15 15:31N 36°26' E 014°39'39712.7
2015-Mar-14 08:13N 38°12' E 022°41'1212.8
2015-Mar-14 07:19N 38°10' E 022°56'  
2015-Mar-10 05:24N 38°11' E 022°59'1 0.3
2015-Mar-10 02:10N 38°10' E 022°59'6 8.3
2015-Mar-10 01:24N 38°10' E 022°51'  

Dump ship's entire track history